Donovan, Illinois
Current Conditions -  °F | °C
As of 11:55 AM on Friday 24 Oct 2014 (Local Time) from KIKK Reporting Station
Clear Clear  
Wind Chill: 63°   Ceiling: Unl
Heat Index: 63°   Visibility: 10mi
Dew Point: 53°   Wind: 5mph
Humidity: 68%   Direction: 220°SW
Pressure: 30.07"   Gusts: NA
Location:  40.88°N, 87.62°W
Report Text: KIKK 241655Z AUTO 22004KT 10SM CLR 17/11 A3007 RMK AO2 T01730114
Loading
Personal Weather Stations






























Interactive Weather Map
Tropical Storm Tracking
New forecast layout! Learn more

10-Day Weather Forecast

Advertisements
Track Severe Weather on mobile